Terminal Aerodrome Forecast
Issued by NWS Melbourne, FL

Home | Current Version | Previous Version | Text Only | Print | Product List | Glossary On
Versions: 1 2 3 4 5 6 7 8 9 10 11 12 13 14 15 16 17 18 19 20 21 22 23 24 25
000
FTUS42 KMLB 041124
TAFMCO
TAF
KMCO 041124Z 0412/0512 04006KT P6SM FEW040 SCT080 BKN250
     FM041400 07011KT P6SM SCT050 SCT250
     FM041700 08016G22KT P6SM SCT050 SCT250
     FM050000 07010KT P6SM FEW060 SCT250=

USA.gov is the U.S. government's official web portal to all federal, state and local government web resources and services.